APJ355 RJTT-RJFF
Flight info
| Callsign | APJ355 |
|---|---|
| Flight time | 1h 43m |
| Altitude | 38000 |
| Route | TIARA GUSRO Y20 KIRIN |
| Aircraft | A20N/M-SDE2E3FGHIRWXY/LB1 |
Departure
| Time | 2026-05-09 02:35 |
|---|---|
| Airport | Tokyo Haneda International Airport (RJTT) |
Arrival
| Time | 2026-05-09 04:19 |
|---|---|
| Airport | Fukuoka Airport (RJFF) |
| Time | Latitude | Longitude | Altitude | Speed | Heading |
|---|---|---|---|---|---|
| 2026-05-09 02:05 | 35.55079 | 139.78127 | 33 ft | 0 kts | 27° |
| 2026-05-09 02:07 | 35.55090 | 139.78067 | 33 ft | 0 kts | 58° |
| 2026-05-09 02:17 | 35.55084 | 139.78055 | 33 ft | 4 kts | 58° |
| 2026-05-09 02:17 | 35.55070 | 139.78027 | 31 ft | 4 kts | 58° |
| 2026-05-09 02:17 | 35.55056 | 139.77998 | 32 ft | 4 kts | 58° |
| 2026-05-09 02:17 | 35.55045 | 139.77974 | 32 ft | 4 kts | 103° |
| 2026-05-09 02:18 | 35.55060 | 139.77954 | 32 ft | 4 kts | 149° |
| 2026-05-09 02:18 | 35.55056 | 139.77964 | 31 ft | 4 kts | 116° |
| 2026-05-09 02:18 | 35.55056 | 139.77985 | 31 ft | 0 kts | 85° |
| 2026-05-09 02:23 | 35.55052 | 139.77992 | 33 ft | 7 kts | 122° |
| 2026-05-09 02:23 | 35.54971 | 139.78006 | 33 ft | 13 kts | 183° |
| 2026-05-09 02:23 | 35.54891 | 139.77984 | 33 ft | 11 kts | 195° |
| 2026-05-09 02:23 | 35.54792 | 139.78022 | 32 ft | 20 kts | 151° |
| 2026-05-09 02:24 | 35.54670 | 139.78106 | 30 ft | 20 kts | 150° |
| 2026-05-09 02:24 | 35.54556 | 139.78189 | 30 ft | 19 kts | 148° |
| 2026-05-09 02:24 | 35.54446 | 139.78265 | 32 ft | 18 kts | 150° |
| 2026-05-09 02:24 | 35.54343 | 139.78339 | 32 ft | 17 kts | 149° |
| 2026-05-09 02:25 | 35.54256 | 139.78417 | 33 ft | 13 kts | 116° |
| 2026-05-09 02:25 | 35.54269 | 139.78503 | 32 ft | 11 kts | 59° |
| 2026-05-09 02:25 | 35.54329 | 139.78626 | 31 ft | 18 kts | 59° |
| 2026-05-09 02:25 | 35.54391 | 139.78759 | 34 ft | 18 kts | 60° |
| 2026-05-09 02:26 | 35.54452 | 139.78889 | 34 ft | 17 kts | 60° |
| 2026-05-09 02:26 | 35.54508 | 139.79007 | 35 ft | 15 kts | 59° |
| 2026-05-09 02:26 | 35.54566 | 139.79129 | 33 ft | 23 kts | 59° |
| 2026-05-09 02:26 | 35.54654 | 139.79315 | 32 ft | 25 kts | 61° |
| 2026-05-09 02:27 | 35.54743 | 139.79499 | 34 ft | 24 kts | 57° |
| 2026-05-09 02:27 | 35.54793 | 139.79660 | 33 ft | 15 kts | 104° |
| 2026-05-09 02:27 | 35.54719 | 139.79724 | 33 ft | 12 kts | 150° |
| 2026-05-09 02:27 | 35.54646 | 139.79776 | 33 ft | 12 kts | 149° |
| 2026-05-09 02:28 | 35.54577 | 139.79828 | 33 ft | 11 kts | 149° |
| 2026-05-09 02:28 | 35.54511 | 139.79875 | 34 ft | 11 kts | 150° |
| 2026-05-09 02:28 | 35.54446 | 139.79919 | 33 ft | 10 kts | 150° |
| 2026-05-09 02:28 | 35.54414 | 139.79941 | 34 ft | 5 kts | 150° |
| 2026-05-09 02:29 | 35.54385 | 139.79962 | 34 ft | 5 kts | 150° |
| 2026-05-09 02:29 | 35.54353 | 139.79984 | 34 ft | 5 kts | 149° |
| 2026-05-09 02:29 | 35.54320 | 139.80008 | 32 ft | 6 kts | 149° |
| 2026-05-09 02:29 | 35.54287 | 139.80032 | 34 ft | 6 kts | 149° |
| 2026-05-09 02:30 | 35.54252 | 139.80057 | 34 ft | 6 kts | 149° |
| 2026-05-09 02:30 | 35.54250 | 139.80059 | 32 ft | 0 kts | 149° |
| 2026-05-09 02:32 | 35.54246 | 139.80061 | 33 ft | 1 kts | 149° |
| 2026-05-09 02:33 | 35.54239 | 139.80067 | 34 ft | 2 kts | 149° |
| 2026-05-09 02:33 | 35.54221 | 139.80080 | 32 ft | 7 kts | 149° |
| 2026-05-09 02:33 | 35.54131 | 139.80144 | 33 ft | 21 kts | 149° |
| 2026-05-09 02:33 | 35.53969 | 139.80264 | 35 ft | 27 kts | 148° |
| 2026-05-09 02:34 | 35.53936 | 139.80416 | 38 ft | 17 kts | 56° |
| 2026-05-09 02:34 | 35.53996 | 139.80505 | 42 ft | 6 kts | 7° |
| 2026-05-09 02:34 | 35.54030 | 139.80478 | 40 ft | 12 kts | 329° |
| 2026-05-09 02:34 | 35.54210 | 139.80350 | 36 ft | 59 kts | 330° |
| 2026-05-09 02:35 | 35.54747 | 139.79966 | 32 ft | 119 kts | 330° |
| 2026-05-09 02:35 | 35.55574 | 139.79377 | 234 ft | 147 kts | 333° |
| 2026-05-09 02:35 | 35.56474 | 139.78748 | 853 ft | 146 kts | 332° |
| 2026-05-09 02:35 | 35.57404 | 139.78472 | 1801 ft | 140 kts | 4° |
| 2026-05-09 02:36 | 35.58347 | 139.79016 | 2257 ft | 170 kts | 33° |
| 2026-05-09 02:36 | 35.59190 | 139.80217 | 2665 ft | 200 kts | 46° |
| 2026-05-09 02:36 | 35.60006 | 139.81664 | 3435 ft | 215 kts | 47° |
| 2026-05-09 02:36 | 35.60861 | 139.83353 | 3764 ft | 254 kts | 63° |
| 2026-05-09 02:37 | 35.61146 | 139.85625 | 4297 ft | 281 kts | 85° |
| 2026-05-09 02:37 | 35.61111 | 139.88076 | 5098 ft | 290 kts | 89° |
| 2026-05-09 02:37 | 35.61047 | 139.90582 | 5981 ft | 294 kts | 86° |
| 2026-05-09 02:37 | 35.61379 | 139.93050 | 6785 ft | 291 kts | 63° |
| 2026-05-09 02:38 | 35.62513 | 139.95033 | 7598 ft | 281 kts | 34° |
| 2026-05-09 02:38 | 35.64196 | 139.96128 | 8397 ft | 271 kts | 7° |
| 2026-05-09 02:38 | 35.66028 | 139.96444 | 9235 ft | 269 kts | 358° |
| 2026-05-09 02:38 | 35.67909 | 139.96562 | 10089 ft | 272 kts | 356° |
| 2026-05-09 02:39 | 35.69844 | 139.96576 | 10580 ft | 286 kts | 349° |
| 2026-05-09 02:39 | 35.71796 | 139.95915 | 10885 ft | 297 kts | 327° |
| 2026-05-09 02:39 | 35.73385 | 139.94291 | 11441 ft | 301 kts | 309° |
| 2026-05-09 02:39 | 35.74727 | 139.92290 | 12219 ft | 304 kts | 301° |
| 2026-05-09 02:40 | 35.75667 | 139.89974 | 13040 ft | 304 kts | 285° |
| 2026-05-09 02:40 | 35.75926 | 139.87404 | 13870 ft | 305 kts | 267° |
| 2026-05-09 02:40 | 35.75633 | 139.84813 | 14700 ft | 305 kts | 260° |
| 2026-05-09 02:40 | 35.75195 | 139.82262 | 15579 ft | 303 kts | 258° |
| 2026-05-09 02:41 | 35.74731 | 139.79745 | 16448 ft | 301 kts | 258° |
| 2026-05-09 02:41 | 35.74261 | 139.77230 | 17297 ft | 301 kts | 258° |
| 2026-05-09 02:41 | 35.73791 | 139.74719 | 18104 ft | 300 kts | 258° |
| 2026-05-09 02:41 | 35.73323 | 139.72218 | 18785 ft | 301 kts | 257° |
| 2026-05-09 02:42 | 35.72852 | 139.69707 | 19444 ft | 301 kts | 257° |
| 2026-05-09 02:42 | 35.72447 | 139.67182 | 20086 ft | 302 kts | 264° |
| 2026-05-09 02:42 | 35.72697 | 139.64629 | 20701 ft | 307 kts | 276° |
| 2026-05-09 02:42 | 35.72955 | 139.62037 | 21283 ft | 303 kts | 262° |
| 2026-05-09 02:43 | 35.72339 | 139.59580 | 21857 ft | 304 kts | 246° |
| 2026-05-09 02:43 | 35.71337 | 139.57292 | 22484 ft | 304 kts | 244° |
| 2026-05-09 02:43 | 35.70357 | 139.54985 | 23100 ft | 303 kts | 246° |
| 2026-05-09 02:43 | 35.69468 | 139.52636 | 23654 ft | 303 kts | 248° |
| 2026-05-09 02:44 | 35.68656 | 139.50226 | 24101 ft | 305 kts | 250° |
| 2026-05-09 02:44 | 35.67932 | 139.47775 | 24539 ft | 306 kts | 252° |
| 2026-05-09 02:44 | 35.67310 | 139.45260 | 24985 ft | 308 kts | 253° |
| 2026-05-09 02:44 | 35.66784 | 139.42701 | 25428 ft | 309 kts | 256° |
| 2026-05-09 02:45 | 35.66365 | 139.40102 | 25892 ft | 311 kts | 258° |
| 2026-05-09 02:45 | 35.66076 | 139.37460 | 26302 ft | 313 kts | 260° |
| 2026-05-09 02:45 | 35.65910 | 139.34778 | 26689 ft | 316 kts | 262° |
| 2026-05-09 02:45 | 35.65863 | 139.32074 | 27065 ft | 318 kts | 265° |
| 2026-05-09 02:46 | 35.65936 | 139.29338 | 27447 ft | 321 kts | 267° |
| 2026-05-09 02:46 | 35.66127 | 139.26590 | 27815 ft | 325 kts | 269° |
| 2026-05-09 02:46 | 35.66430 | 139.23859 | 28161 ft | 328 kts | 271° |
| 2026-05-09 02:46 | 35.66850 | 139.21084 | 28532 ft | 332 kts | 273° |
| 2026-05-09 02:47 | 35.67384 | 139.18300 | 28866 ft | 337 kts | 276° |
| 2026-05-09 02:47 | 35.68029 | 139.15497 | 29160 ft | 343 kts | 277° |
| 2026-05-09 02:47 | 35.68779 | 139.12702 | 29506 ft | 345 kts | 278° |
| 2026-05-09 02:47 | 35.69591 | 139.10050 | 29795 ft | 347 kts | 281° |
| 2026-05-09 02:48 | 35.70536 | 139.07207 | 30107 ft | 344 kts | 278° |
| 2026-05-09 02:48 | 35.71041 | 139.04401 | 30310 ft | 331 kts | 267° |
| 2026-05-09 02:48 | 35.71070 | 139.01580 | 30567 ft | 329 kts | 263° |
| 2026-05-09 02:48 | 35.70979 | 138.98771 | 30926 ft | 327 kts | 262° |
| 2026-05-09 02:49 | 35.70880 | 138.95999 | 31237 ft | 326 kts | 262° |
| 2026-05-09 02:49 | 35.70786 | 138.93208 | 31599 ft | 325 kts | 262° |
| 2026-05-09 02:49 | 35.70690 | 138.90444 | 31943 ft | 322 kts | 262° |
| 2026-05-09 02:49 | 35.70596 | 138.87719 | 32181 ft | 323 kts | 262° |
| 2026-05-09 02:50 | 35.70509 | 138.84954 | 32380 ft | 325 kts | 262° |
| 2026-05-09 02:50 | 35.70429 | 138.82192 | 32838 ft | 321 kts | 262° |
| 2026-05-09 02:50 | 35.70306 | 138.79471 | 33239 ft | 315 kts | 256° |
| 2026-05-09 02:50 | 35.69499 | 138.77012 | 33523 ft | 313 kts | 238° |
| 2026-05-09 02:51 | 35.67901 | 138.75143 | 33812 ft | 328 kts | 220° |
| 2026-05-09 02:51 | 35.65864 | 138.73809 | 34115 ft | 329 kts | 221° |
| 2026-05-09 02:51 | 35.64097 | 138.72139 | 34305 ft | 317 kts | 231° |
| 2026-05-09 02:51 | 35.62626 | 138.70124 | 34462 ft | 314 kts | 237° |
| 2026-05-09 02:52 | 35.61415 | 138.67899 | 34634 ft | 312 kts | 242° |
| 2026-05-09 02:52 | 35.60742 | 138.66337 | 34754 ft | 312 kts | 245° |
| 2026-05-09 02:52 | 35.59918 | 138.63865 | 34925 ft | 313 kts | 250° |
| 2026-05-09 02:52 | 35.59333 | 138.61278 | 35094 ft | 315 kts | 255° |
| 2026-05-09 02:53 | 35.59007 | 138.58613 | 35267 ft | 318 kts | 261° |
| 2026-05-09 02:53 | 35.58929 | 138.55881 | 35440 ft | 321 kts | 263° |
| 2026-05-09 02:53 | 35.58934 | 138.52241 | 35652 ft | 322 kts | 264° |
| 2026-05-09 02:53 | 35.58962 | 138.49488 | 35832 ft | 323 kts | 265° |
| 2026-05-09 02:54 | 35.58996 | 138.46727 | 35998 ft | 323 kts | 265° |
| 2026-05-09 02:54 | 35.59017 | 138.44897 | 36106 ft | 323 kts | 265° |
| 2026-05-09 02:54 | 35.59046 | 138.42135 | 36202 ft | 323 kts | 265° |
| 2026-05-09 02:55 | 35.59095 | 138.36603 | 36360 ft | 324 kts | 265° |
| 2026-05-09 02:55 | 35.59114 | 138.33836 | 36573 ft | 324 kts | 265° |
| 2026-05-09 02:55 | 35.59129 | 138.31063 | 36770 ft | 324 kts | 265° |
| 2026-05-09 02:55 | 35.59143 | 138.28294 | 36961 ft | 324 kts | 264° |
| 2026-05-09 02:56 | 35.59158 | 138.25521 | 37147 ft | 324 kts | 264° |
| 2026-05-09 02:56 | 35.59172 | 138.22781 | 37256 ft | 325 kts | 265° |
| 2026-05-09 02:56 | 35.59185 | 138.20008 | 37463 ft | 325 kts | 265° |
| 2026-05-09 02:56 | 35.59198 | 138.17232 | 37633 ft | 325 kts | 265° |
| 2026-05-09 02:57 | 35.59209 | 138.14452 | 37793 ft | 325 kts | 266° |
| 2026-05-09 02:57 | 35.59221 | 138.11672 | 37930 ft | 325 kts | 265° |
| 2026-05-09 02:57 | 35.59232 | 138.08887 | 37979 ft | 326 kts | 265° |
| 2026-05-09 02:58 | 35.59255 | 138.03354 | 37969 ft | 321 kts | 265° |
| 2026-05-09 02:58 | 35.59274 | 137.97877 | 37988 ft | 321 kts | 265° |
| 2026-05-09 02:59 | 35.59288 | 137.92378 | 37996 ft | 323 kts | 265° |
| 2026-05-09 02:59 | 35.59300 | 137.86854 | 37992 ft | 323 kts | 265° |
| 2026-05-09 03:00 | 35.59311 | 137.81337 | 38011 ft | 324 kts | 264° |
| 2026-05-09 03:00 | 35.59043 | 137.75817 | 37992 ft | 323 kts | 262° |
| 2026-05-09 03:01 | 35.58657 | 137.70315 | 38015 ft | 323 kts | 261° |
| 2026-05-09 03:01 | 35.58244 | 137.64841 | 38009 ft | 323 kts | 261° |
| 2026-05-09 03:02 | 35.57826 | 137.59329 | 38017 ft | 324 kts | 261° |
| 2026-05-09 03:02 | 35.57367 | 137.53833 | 38030 ft | 323 kts | 258° |
| 2026-05-09 03:03 | 35.56384 | 137.48464 | 38020 ft | 322 kts | 254° |
| 2026-05-09 03:03 | 35.55238 | 137.43138 | 38019 ft | 322 kts | 254° |
| 2026-05-09 03:04 | 35.54062 | 137.37839 | 38034 ft | 322 kts | 254° |
| 2026-05-09 03:04 | 35.52892 | 137.32555 | 38031 ft | 322 kts | 254° |
| 2026-05-09 03:05 | 35.51797 | 137.27594 | 38048 ft | 321 kts | 254° |
| 2026-05-09 03:05 | 35.50628 | 137.22291 | 38047 ft | 322 kts | 254° |
| 2026-05-09 03:06 | 35.49455 | 137.16987 | 38042 ft | 322 kts | 254° |
| 2026-05-09 03:06 | 35.48279 | 137.11678 | 38051 ft | 323 kts | 254° |
| 2026-05-09 03:07 | 35.47105 | 137.06399 | 38049 ft | 323 kts | 254° |
| 2026-05-09 03:07 | 35.45925 | 137.01096 | 38049 ft | 322 kts | 254° |
| 2026-05-09 03:08 | 35.44739 | 136.95781 | 38052 ft | 322 kts | 254° |
| 2026-05-09 03:08 | 35.43554 | 136.90487 | 38062 ft | 322 kts | 254° |
| 2026-05-09 03:09 | 35.42366 | 136.85183 | 38058 ft | 322 kts | 254° |
| 2026-05-09 03:09 | 35.41173 | 136.79871 | 38060 ft | 322 kts | 254° |
| 2026-05-09 03:10 | 35.39986 | 136.74604 | 38061 ft | 322 kts | 254° |
| 2026-05-09 03:10 | 35.38790 | 136.69301 | 38068 ft | 323 kts | 254° |
| 2026-05-09 03:11 | 35.37590 | 136.63996 | 38068 ft | 323 kts | 254° |
| 2026-05-09 03:11 | 35.36385 | 136.58681 | 38074 ft | 324 kts | 254° |
| 2026-05-09 03:12 | 35.35175 | 136.53353 | 38078 ft | 325 kts | 254° |
| 2026-05-09 03:12 | 35.33960 | 136.48018 | 38077 ft | 325 kts | 254° |
| 2026-05-09 03:13 | 35.32138 | 136.40037 | 38086 ft | 326 kts | 254° |
| 2026-05-09 03:13 | 35.30916 | 136.34693 | 38099 ft | 326 kts | 254° |
| 2026-05-09 03:14 | 35.29690 | 136.29348 | 38088 ft | 326 kts | 254° |
| 2026-05-09 03:14 | 35.28461 | 136.24005 | 38103 ft | 325 kts | 254° |
| 2026-05-09 03:15 | 35.27234 | 136.18678 | 38099 ft | 325 kts | 254° |
| 2026-05-09 03:15 | 35.26005 | 136.13353 | 38092 ft | 325 kts | 254° |
| 2026-05-09 03:16 | 35.24777 | 136.08046 | 38097 ft | 324 kts | 254° |
| 2026-05-09 03:16 | 35.23543 | 136.02723 | 38100 ft | 324 kts | 254° |
| 2026-05-09 03:17 | 35.22309 | 135.97412 | 38103 ft | 324 kts | 254° |
| 2026-05-09 03:17 | 35.21266 | 135.92934 | 38105 ft | 324 kts | 254° |
| 2026-05-09 03:18 | 35.20027 | 135.87612 | 38105 ft | 325 kts | 254° |
| 2026-05-09 03:18 | 35.18784 | 135.82294 | 38118 ft | 325 kts | 254° |
| 2026-05-09 03:19 | 35.17671 | 135.76946 | 38095 ft | 324 kts | 257° |
| 2026-05-09 03:19 | 35.16765 | 135.71549 | 38120 ft | 325 kts | 258° |
| 2026-05-09 03:20 | 35.15894 | 135.66168 | 38111 ft | 324 kts | 258° |
| 2026-05-09 03:20 | 35.15000 | 135.60757 | 38108 ft | 324 kts | 258° |
| 2026-05-09 03:21 | 35.14083 | 135.55318 | 38118 ft | 325 kts | 258° |
| 2026-05-09 03:21 | 35.13165 | 135.49912 | 38115 ft | 325 kts | 257° |
| 2026-05-09 03:22 | 35.12245 | 135.44503 | 38113 ft | 325 kts | 258° |
| 2026-05-09 03:22 | 35.11321 | 135.39095 | 38098 ft | 325 kts | 257° |
| 2026-05-09 03:23 | 35.10397 | 135.33687 | 38108 ft | 325 kts | 257° |
| 2026-05-09 03:23 | 35.09469 | 135.28276 | 38103 ft | 325 kts | 257° |
| 2026-05-09 03:24 | 35.08539 | 135.22867 | 38116 ft | 326 kts | 257° |
| 2026-05-09 03:24 | 35.07610 | 135.17485 | 38108 ft | 325 kts | 257° |
| 2026-05-09 03:25 | 35.06674 | 135.12080 | 38106 ft | 326 kts | 257° |
| 2026-05-09 03:25 | 35.05734 | 135.06666 | 38116 ft | 326 kts | 257° |
| 2026-05-09 03:26 | 35.04793 | 135.01252 | 38114 ft | 326 kts | 257° |
| 2026-05-09 03:26 | 35.03843 | 134.95803 | 38112 ft | 326 kts | 257° |
| 2026-05-09 03:27 | 35.02896 | 134.90393 | 38111 ft | 326 kts | 257° |
| 2026-05-09 03:27 | 35.01947 | 134.84985 | 38106 ft | 326 kts | 257° |
| 2026-05-09 03:28 | 35.00999 | 134.79600 | 38108 ft | 327 kts | 257° |
| 2026-05-09 03:28 | 35.00042 | 134.74178 | 38111 ft | 327 kts | 257° |
| 2026-05-09 03:29 | 34.99078 | 134.68763 | 38112 ft | 327 kts | 257° |
| 2026-05-09 03:29 | 34.98041 | 134.63356 | 38122 ft | 327 kts | 256° |
| 2026-05-09 03:30 | 34.96969 | 134.57961 | 38124 ft | 328 kts | 256° |
| 2026-05-09 03:30 | 34.95895 | 134.52570 | 38120 ft | 327 kts | 256° |
| 2026-05-09 03:31 | 34.94833 | 134.47214 | 38121 ft | 327 kts | 256° |
| 2026-05-09 03:31 | 34.93763 | 134.41821 | 38125 ft | 327 kts | 256° |
| 2026-05-09 03:32 | 34.92692 | 134.36428 | 38123 ft | 327 kts | 256° |
| 2026-05-09 03:32 | 34.91618 | 134.31037 | 38128 ft | 327 kts | 256° |
| 2026-05-09 03:33 | 34.90540 | 134.25646 | 38122 ft | 327 kts | 257° |
| 2026-05-09 03:33 | 34.89462 | 134.20267 | 38118 ft | 327 kts | 256° |
| 2026-05-09 03:34 | 34.88382 | 134.14892 | 38119 ft | 327 kts | 256° |
| 2026-05-09 03:34 | 34.87296 | 134.09498 | 38110 ft | 327 kts | 256° |
| 2026-05-09 03:35 | 34.86210 | 134.04115 | 38110 ft | 327 kts | 256° |
| 2026-05-09 03:35 | 34.85125 | 133.98752 | 38106 ft | 328 kts | 256° |
| 2026-05-09 03:36 | 34.84029 | 133.93349 | 38103 ft | 329 kts | 256° |
| 2026-05-09 03:36 | 34.82923 | 133.87913 | 38099 ft | 328 kts | 256° |
| 2026-05-09 03:37 | 34.81822 | 133.82567 | 38101 ft | 328 kts | 256° |
| 2026-05-09 03:37 | 34.80690 | 133.77180 | 38107 ft | 329 kts | 256° |
| 2026-05-09 03:38 | 34.79548 | 133.71786 | 38103 ft | 329 kts | 256° |
| 2026-05-09 03:38 | 34.78406 | 133.66391 | 38105 ft | 329 kts | 256° |
| 2026-05-09 03:39 | 34.77262 | 133.60994 | 38112 ft | 329 kts | 256° |
| 2026-05-09 03:39 | 34.76116 | 133.55596 | 38114 ft | 329 kts | 256° |
| 2026-05-09 03:40 | 34.74968 | 133.50202 | 38119 ft | 330 kts | 255° |
| 2026-05-09 03:40 | 34.73815 | 133.44799 | 38123 ft | 330 kts | 255° |
| 2026-05-09 03:41 | 34.72656 | 133.39384 | 38138 ft | 330 kts | 256° |
| 2026-05-09 03:41 | 34.71498 | 133.33974 | 38130 ft | 331 kts | 255° |
| 2026-05-09 03:42 | 34.70334 | 133.28559 | 38128 ft | 331 kts | 255° |
| 2026-05-09 03:42 | 34.69170 | 133.23150 | 38132 ft | 331 kts | 255° |
| 2026-05-09 03:43 | 34.68002 | 133.17741 | 38135 ft | 331 kts | 256° |
| 2026-05-09 03:43 | 34.66832 | 133.12336 | 38128 ft | 331 kts | 255° |
| 2026-05-09 03:44 | 34.65669 | 133.06974 | 38133 ft | 331 kts | 255° |
| 2026-05-09 03:44 | 34.64493 | 133.01560 | 38133 ft | 331 kts | 255° |
| 2026-05-09 03:45 | 34.63316 | 132.96156 | 38129 ft | 331 kts | 255° |
| 2026-05-09 03:45 | 34.62134 | 132.90746 | 38136 ft | 331 kts | 255° |
| 2026-05-09 03:46 | 34.60950 | 132.85338 | 38131 ft | 331 kts | 255° |
| 2026-05-09 03:46 | 34.59766 | 132.79941 | 38131 ft | 331 kts | 255° |
| 2026-05-09 03:47 | 34.58780 | 132.75453 | 38123 ft | 331 kts | 255° |
| 2026-05-09 03:47 | 34.57396 | 132.69173 | 38125 ft | 331 kts | 255° |
| 2026-05-09 03:48 | 34.56204 | 132.63773 | 38141 ft | 331 kts | 255° |
| 2026-05-09 03:48 | 34.55208 | 132.59278 | 38138 ft | 332 kts | 255° |
| 2026-05-09 03:49 | 34.54007 | 132.53863 | 38136 ft | 332 kts | 255° |
| 2026-05-09 03:49 | 34.52805 | 132.48458 | 38143 ft | 332 kts | 255° |
| 2026-05-09 03:50 | 34.51601 | 132.43054 | 38137 ft | 333 kts | 255° |
| 2026-05-09 03:50 | 34.50388 | 132.37629 | 38138 ft | 333 kts | 255° |
| 2026-05-09 03:51 | 34.49173 | 132.32204 | 38145 ft | 333 kts | 255° |
| 2026-05-09 03:51 | 34.47956 | 132.26783 | 38146 ft | 333 kts | 255° |
| 2026-05-09 03:52 | 34.46736 | 132.21359 | 38119 ft | 333 kts | 255° |
| 2026-05-09 03:52 | 34.45512 | 132.15939 | 38147 ft | 333 kts | 255° |
| 2026-05-09 03:53 | 34.44293 | 132.10548 | 38141 ft | 333 kts | 255° |
| 2026-05-09 03:53 | 34.43064 | 132.05123 | 38138 ft | 334 kts | 254° |
| 2026-05-09 03:54 | 34.41811 | 131.99708 | 38142 ft | 334 kts | 252° |
| 2026-05-09 03:54 | 34.39817 | 131.94578 | 38154 ft | 341 kts | 241° |
| 2026-05-09 03:55 | 34.36834 | 131.90038 | 38138 ft | 347 kts | 233° |
| 2026-05-09 03:55 | 34.35180 | 131.87935 | 37921 ft | 352 kts | 232° |
| 2026-05-09 03:55 | 34.33444 | 131.85812 | 37152 ft | 357 kts | 231° |
| 2026-05-09 03:56 | 34.31678 | 131.83678 | 36367 ft | 360 kts | 231° |
| 2026-05-09 03:56 | 34.29894 | 131.81513 | 35530 ft | 365 kts | 231° |
| 2026-05-09 03:56 | 34.28096 | 131.79309 | 34797 ft | 369 kts | 231° |
| 2026-05-09 03:56 | 34.26312 | 131.77106 | 34158 ft | 368 kts | 232° |
| 2026-05-09 03:57 | 34.24512 | 131.74873 | 33436 ft | 368 kts | 232° |
| 2026-05-09 03:57 | 34.22714 | 131.72636 | 32749 ft | 369 kts | 232° |
| 2026-05-09 03:57 | 34.20929 | 131.70411 | 32153 ft | 368 kts | 232° |
| 2026-05-09 03:57 | 34.19153 | 131.68198 | 31582 ft | 366 kts | 232° |
| 2026-05-09 03:58 | 34.17381 | 131.65995 | 31008 ft | 364 kts | 232° |
| 2026-05-09 03:58 | 34.15622 | 131.63806 | 30495 ft | 362 kts | 233° |
| 2026-05-09 03:58 | 34.13874 | 131.61633 | 29823 ft | 362 kts | 233° |
| 2026-05-09 03:58 | 34.12141 | 131.59474 | 29154 ft | 361 kts | 233° |
| 2026-05-09 03:59 | 34.10402 | 131.57314 | 28647 ft | 357 kts | 233° |
| 2026-05-09 03:59 | 34.08681 | 131.55180 | 28124 ft | 355 kts | 233° |
| 2026-05-09 03:59 | 34.06968 | 131.53055 | 27597 ft | 351 kts | 233° |
| 2026-05-09 03:59 | 34.05274 | 131.50955 | 27065 ft | 348 kts | 233° |
| 2026-05-09 04:00 | 34.03587 | 131.48865 | 26551 ft | 346 kts | 233° |
| 2026-05-09 04:00 | 34.01916 | 131.46796 | 26036 ft | 344 kts | 233° |
| 2026-05-09 04:00 | 34.00248 | 131.44730 | 25519 ft | 343 kts | 233° |
| 2026-05-09 04:00 | 33.98583 | 131.42669 | 24989 ft | 342 kts | 233° |
| 2026-05-09 04:01 | 33.96923 | 131.40616 | 24474 ft | 342 kts | 233° |
| 2026-05-09 04:01 | 33.95262 | 131.38562 | 23944 ft | 342 kts | 233° |
| 2026-05-09 04:01 | 33.93601 | 131.36510 | 23343 ft | 342 kts | 233° |
| 2026-05-09 04:01 | 33.91939 | 131.34458 | 22783 ft | 341 kts | 233° |
| 2026-05-09 04:02 | 33.90289 | 131.32426 | 22267 ft | 338 kts | 233° |
| 2026-05-09 04:02 | 33.88649 | 131.30406 | 21737 ft | 337 kts | 233° |
| 2026-05-09 04:02 | 33.87011 | 131.28389 | 21203 ft | 336 kts | 233° |
| 2026-05-09 04:02 | 33.85382 | 131.26383 | 20672 ft | 335 kts | 233° |
| 2026-05-09 04:03 | 33.83750 | 131.24374 | 20138 ft | 335 kts | 233° |
| 2026-05-09 04:03 | 33.82124 | 131.22373 | 19591 ft | 335 kts | 233° |
| 2026-05-09 04:03 | 33.80498 | 131.20372 | 19049 ft | 336 kts | 232° |
| 2026-05-09 04:03 | 33.78862 | 131.18361 | 18511 ft | 337 kts | 232° |
| 2026-05-09 04:04 | 33.77215 | 131.16337 | 17907 ft | 338 kts | 232° |
| 2026-05-09 04:04 | 33.75593 | 131.14347 | 17369 ft | 337 kts | 232° |
| 2026-05-09 04:04 | 33.73956 | 131.12341 | 16813 ft | 336 kts | 232° |
| 2026-05-09 04:04 | 33.72323 | 131.10341 | 16257 ft | 335 kts | 231° |
| 2026-05-09 04:05 | 33.70683 | 131.08333 | 15707 ft | 335 kts | 231° |
| 2026-05-09 04:05 | 33.69052 | 131.06336 | 15145 ft | 335 kts | 231° |
| 2026-05-09 04:05 | 33.67418 | 131.04337 | 14598 ft | 336 kts | 231° |
| 2026-05-09 04:05 | 33.65786 | 131.02340 | 14041 ft | 336 kts | 230° |
| 2026-05-09 04:06 | 33.64143 | 131.00333 | 13439 ft | 336 kts | 230° |
| 2026-05-09 04:06 | 33.62508 | 130.98336 | 12862 ft | 335 kts | 230° |
| 2026-05-09 04:06 | 33.60871 | 130.96339 | 12318 ft | 330 kts | 230° |
| 2026-05-09 04:06 | 33.59287 | 130.94414 | 11723 ft | 323 kts | 230° |
| 2026-05-09 04:07 | 33.57732 | 130.92520 | 11069 ft | 319 kts | 229° |
| 2026-05-09 04:07 | 33.56196 | 130.90650 | 10531 ft | 311 kts | 229° |
| 2026-05-09 04:07 | 33.54686 | 130.88814 | 9997 ft | 306 kts | 229° |
| 2026-05-09 04:07 | 33.53228 | 130.87044 | 9773 ft | 290 kts | 229° |
| 2026-05-09 04:08 | 33.52753 | 130.86469 | 9625 ft | 287 kts | 229° |
| 2026-05-09 04:08 | 33.52239 | 130.85845 | 9429 ft | 285 kts | 229° |
| 2026-05-09 04:08 | 33.50851 | 130.84160 | 8909 ft | 282 kts | 229° |
| 2026-05-09 04:09 | 33.49583 | 130.82618 | 8475 ft | 277 kts | 229° |
| 2026-05-09 04:09 | 33.48236 | 130.80974 | 8023 ft | 275 kts | 229° |
| 2026-05-09 04:09 | 33.47028 | 130.79503 | 7588 ft | 274 kts | 228° |
| 2026-05-09 04:09 | 33.45703 | 130.77888 | 7188 ft | 268 kts | 228° |
| 2026-05-09 04:10 | 33.44431 | 130.76347 | 7004 ft | 254 kts | 228° |
| 2026-05-09 04:10 | 33.43213 | 130.74875 | 6815 ft | 242 kts | 228° |
| 2026-05-09 04:10 | 33.42078 | 130.73506 | 6804 ft | 221 kts | 229° |
| 2026-05-09 04:10 | 33.41034 | 130.72249 | 6674 ft | 205 kts | 229° |
| 2026-05-09 04:11 | 33.40070 | 130.71088 | 6575 ft | 188 kts | 229° |
| 2026-05-09 04:11 | 33.39193 | 130.70031 | 6418 ft | 175 kts | 229° |
| 2026-05-09 04:11 | 33.38354 | 130.69012 | 6179 ft | 169 kts | 229° |
| 2026-05-09 04:11 | 33.37536 | 130.68014 | 5874 ft | 166 kts | 229° |
| 2026-05-09 04:12 | 33.36732 | 130.67028 | 5583 ft | 164 kts | 230° |
| 2026-05-09 04:12 | 33.36108 | 130.65955 | 5422 ft | 151 kts | 243° |
| 2026-05-09 04:12 | 33.35537 | 130.64935 | 5179 ft | 147 kts | 234° |
| 2026-05-09 04:12 | 33.34867 | 130.64005 | 4867 ft | 147 kts | 231° |
| 2026-05-09 04:13 | 33.34322 | 130.62988 | 4506 ft | 144 kts | 259° |
| 2026-05-09 04:13 | 33.34596 | 130.61920 | 4047 ft | 141 kts | 324° |
| 2026-05-09 04:13 | 33.35498 | 130.61528 | 3763 ft | 136 kts | 339° |
| 2026-05-09 04:13 | 33.36233 | 130.60852 | 3883 ft | 134 kts | 319° |
| 2026-05-09 04:14 | 33.36932 | 130.60112 | 4073 ft | 135 kts | 321° |
| 2026-05-09 04:14 | 33.37675 | 130.59448 | 4284 ft | 135 kts | 326° |
| 2026-05-09 04:14 | 33.38478 | 130.58835 | 4406 ft | 136 kts | 329° |
| 2026-05-09 04:14 | 33.39283 | 130.58268 | 4303 ft | 136 kts | 330° |
| 2026-05-09 04:15 | 33.40107 | 130.57704 | 4084 ft | 136 kts | 331° |
| 2026-05-09 04:15 | 33.40928 | 130.57143 | 3821 ft | 135 kts | 331° |
| 2026-05-09 04:15 | 33.41739 | 130.56589 | 3599 ft | 133 kts | 331° |
| 2026-05-09 04:15 | 33.42545 | 130.56039 | 3418 ft | 133 kts | 331° |
| 2026-05-09 04:16 | 33.43351 | 130.55488 | 3235 ft | 134 kts | 330° |
| 2026-05-09 04:16 | 33.44167 | 130.54933 | 3062 ft | 135 kts | 333° |
| 2026-05-09 04:16 | 33.44994 | 130.54367 | 2885 ft | 140 kts | 331° |
| 2026-05-09 04:16 | 33.45837 | 130.53788 | 2700 ft | 144 kts | 332° |
| 2026-05-09 04:17 | 33.46714 | 130.53191 | 2505 ft | 145 kts | 330° |
| 2026-05-09 04:17 | 33.47559 | 130.52612 | 2297 ft | 135 kts | 331° |
| 2026-05-09 04:17 | 33.48363 | 130.52066 | 2139 ft | 131 kts | 330° |
| 2026-05-09 04:17 | 33.49149 | 130.51530 | 1950 ft | 129 kts | 332° |
| 2026-05-09 04:18 | 33.49906 | 130.50986 | 1706 ft | 126 kts | 330° |
| 2026-05-09 04:18 | 33.50642 | 130.50389 | 1324 ft | 129 kts | 327° |
| 2026-05-09 04:18 | 33.51425 | 130.49896 | 1058 ft | 124 kts | 339° |
| 2026-05-09 04:18 | 33.52186 | 130.49528 | 622 ft | 120 kts | 322° |
| 2026-05-09 04:19 | 33.52418 | 130.49416 | 85 ft | 0 kts | 12° |